Time;durP1;ratioP1;P1;durP2;ratioP2;P2;SDS_P1;SDS_P2;PMS_P1;PMS_P2;Temp;Humidity;BMP_temperature;BMP_pressure;BME280_temperature;BME280_humidity;BME280_pressure;Samples;Min_cycle;Max_cycle;Signal;HPM_P1;HPM_P2
2023/09/06 00:02:24;;;;;;;2.40;2.15;;;;;;;;;;5047491;28;20233;-85
2023/09/06 00:04:54;;;;;;;2.95;1.95;;;;;;;;;;5058065;28;20241;-85
2023/09/06 00:07:24;;;;;;;2.13;2.00;;;;;;;;;;5061775;28;20222;-85
2023/09/06 00:09:50;;;;;;;2.15;1.98;;;;;;;;;;5041478;28;20222;-85
2023/09/06 00:12:20;;;;;;;2.08;1.88;;;;;;;;;;5041282;28;20206;-85
2023/09/06 00:14:50;;;;;;;2.00;1.90;;;;;;;;;;5056465;28;20271;-85
2023/09/06 00:17:18;;;;;;;2.10;1.88;;;;;;;;;;5060889;28;20301;-85
2023/09/06 00:19:45;;;;;;;4.32;2.20;;;;;;;;;;5048188;28;20464;-84
2023/09/06 00:22:11;;;;;;;2.17;2.00;;;;;;;;;;5049370;28;20226;-85
2023/09/06 00:24:36;;;;;;;1.95;1.85;;;;;;;;;;5051532;28;20233;-85
2023/09/06 00:27:04;;;;;;;3.05;2.15;;;;;;;;;;5055879;28;20229;-86
2023/09/06 00:29:32;;;;;;;3.72;1.98;;;;;;;;;;5050943;28;20211;-84
2023/09/06 00:32:05;;;;;;;1.95;1.85;;;;;;;;;;5052534;28;20848;-85
2023/09/06 00:34:33;;;;;;;1.90;1.80;;;;;;;;;;5062883;28;20222;-86
2023/09/06 00:37:00;;;;;;;2.45;2.25;;;;;;;;;;5050223;28;20281;-87
2023/09/06 00:39:30;;;;;;;2.47;2.38;;;;;;;;;;5057985;28;20247;-86
2023/09/06 00:41:56;;;;;;;2.40;2.30;;;;;;;;;;5057870;28;20248;-85
2023/09/06 00:44:21;;;;;;;2.53;2.30;;;;;;;;;;5054366;28;20211;-86
2023/09/06 00:46:49;;;;;;;2.20;1.98;;;;;;;;;;5067135;28;20224;-85
2023/09/06 00:49:17;;;;;;;3.80;1.92;;;;;;;;;;5048135;28;20218;-86
2023/09/06 00:51:42;;;;;;;2.95;2.00;;;;;;;;;;5044563;28;20214;-85
2023/09/06 00:54:08;;;;;;;1.88;1.77;;;;;;;;;;5049436;28;20230;-85
2023/09/06 00:56:33;;;;;;;2.35;2.15;;;;;;;;;;5055990;28;20283;-86
2023/09/06 00:59:01;;;;;;;2.58;2.30;;;;;;;;;;5051385;28;20228;-85
2023/09/06 01:01:28;;;;;;;1.80;1.70;;;;;;;;;;5043135;28;20214;-85
2023/09/06 01:03:57;;;;;;;1.77;1.67;;;;;;;;;;5063810;28;20218;-86
2023/09/06 01:06:30;;;;;;;3.63;1.70;;;;;;;;;;5054703;28;20240;-87
2023/09/06 01:09:05;;;;;;;2.08;1.98;;;;;;;;;;5034347;28;20225;-86
2023/09/06 01:11:32;;;;;;;3.03;2.22;;;;;;;;;;5060847;28;20226;-87
2023/09/06 01:13:58;;;;;;;2.53;2.33;;;;;;;;;;5042198;28;20276;-87
2023/09/06 01:16:24;;;;;;;3.33;2.47;;;;;;;;;;5030039;28;20209;-85
2023/09/06 01:18:52;;;;;;;2.50;1.67;;;;;;;;;;5089510;28;20229;-86
2023/09/06 01:21:17;;;;;;;2.08;1.88;;;;;;;;;;5027264;28;20301;-85
2023/09/06 01:23:45;;;;;;;2.35;2.08;;;;;;;;;;5059887;28;20250;-86
2023/09/06 01:26:13;;;;;;;2.20;2.00;;;;;;;;;;5042132;28;20265;-87
2023/09/06 01:28:38;;;;;;;2.08;1.88;;;;;;;;;;5058040;28;20218;-86
2023/09/06 01:31:07;;;;;;;1.98;1.65;;;;;;;;;;5057759;28;20232;-85
2023/09/06 01:33:36;;;;;;;1.90;1.80;;;;;;;;;;5058710;28;20215;-86
2023/09/06 01:36:02;;;;;;;1.95;1.83;;;;;;;;;;5038454;28;20223;-87
2023/09/06 01:38:27;;;;;;;2.13;1.85;;;;;;;;;;5059425;28;20237;-86
2023/09/06 01:40:53;;;;;;;2.40;2.00;;;;;;;;;;5040588;28;20241;-86
2023/09/06 01:43:18;;;;;;;1.77;1.67;;;;;;;;;;5038537;28;20218;-87
2023/09/06 01:45:52;;;;;;;2.30;2.10;;;;;;;;;;5060586;28;20681;-86
2023/09/06 01:48:18;;;;;;;2.10;1.90;;;;;;;;;;5042674;28;20690;-88
2023/09/06 01:50:46;;;;;;;2.28;2.17;;;;;;;;;;5043768;28;20217;-87
2023/09/06 01:53:14;;;;;;;2.65;2.45;;;;;;;;;;5046227;28;20247;-87
2023/09/06 01:55:44;;;;;;;2.05;1.85;;;;;;;;;;5033292;28;20564;-87
2023/09/06 01:58:12;;;;;;;2.22;2.00;;;;;;;;;;5055797;28;20960;-86
2023/09/06 02:00:38;;;;;;;1.98;1.88;;;;;;;;;;5041514;28;20294;-88
2023/09/06 02:03:06;;;;;;;2.05;1.95;;;;;;;;;;5056319;28;20214;-86
2023/09/06 02:05:33;;;;;;;1.80;1.70;;;;;;;;;;5046870;28;20230;-85
2023/09/06 02:07:58;;;;;;;1.65;1.50;;;;;;;;;;5060620;28;20217;-85
2023/09/06 02:10:24;;;;;;;1.40;1.30;;;;;;;;;;5057237;28;20516;-85
2023/09/06 02:12:50;;;;;;;1.60;1.33;;;;;;;;;;5056689;28;20237;-85
2023/09/06 02:15:18;;;;;;;1.67;1.58;;;;;;;;;;5056901;28;20210;-85
2023/09/06 02:17:44;;;;;;;2.20;2.08;;;;;;;;;;5073713;28;20226;-84
2023/09/06 02:20:21;;;;;;;1.95;1.85;;;;;;;;;;5060793;28;20217;-85
2023/09/06 02:22:48;;;;;;;1.90;1.80;;;;;;;;;;5065781;28;20228;-85
2023/09/06 02:25:15;;;;;;;1.60;1.50;;;;;;;;;;5036906;28;20222;-87
2023/09/06 02:27:40;;;;;;;2.13;1.40;;;;;;;;;;5030046;28;20734;-87
2023/09/06 02:30:06;;;;;;;1.88;1.63;;;;;;;;;;5037993;28;20210;-88
2023/09/06 02:32:33;;;;;;;1.60;1.50;;;;;;;;;;5053875;28;20234;-87
2023/09/06 02:34:58;;;;;;;2.30;1.70;;;;;;;;;;5059048;28;20218;-88
2023/09/06 02:37:26;;;;;;;2.17;1.65;;;;;;;;;;5058840;28;20226;-87
2023/09/06 02:39:54;;;;;;;2.00;1.70;;;;;;;;;;5037153;28;20663;-86
2023/09/06 02:42:20;;;;;;;2.10;1.90;;;;;;;;;;5051233;28;20221;-85
2023/09/06 02:44:49;;;;;;;1.85;1.75;;;;;;;;;;5051694;28;20214;-86
2023/09/06 02:47:17;;;;;;;2.03;1.90;;;;;;;;;;5029240;28;20218;-86
2023/09/06 02:49:45;;;;;;;1.60;1.50;;;;;;;;;;5031257;28;20350;-85
2023/09/06 02:52:20;;;;;;;2.05;1.67;;;;;;;;;;5048817;28;20227;-86
2023/09/06 02:54:49;;;;;;;1.40;1.40;;;;;;;;;;5044773;28;20745;-86
2023/09/06 02:57:17;;;;;;;1.83;1.63;;;;;;;;;;5039418;28;20222;-87
2023/09/06 02:59:42;;;;;;;1.90;1.80;;;;;;;;;;5027608;28;20221;-86
2023/09/06 03:02:08;;;;;;;2.00;1.88;;;;;;;;;;5036235;28;20217;-86
2023/09/06 03:04:37;;;;;;;1.90;1.80;;;;;;;;;;5034466;28;20956;-84
2023/09/06 03:07:07;;;;;;;2.00;1.85;;;;;;;;;;5037493;28;20223;-85
2023/09/06 03:09:35;;;;;;;2.10;1.90;;;;;;;;;;5038875;28;20227;-87
2023/09/06 03:12:11;;;;;;;3.15;1.98;;;;;;;;;;5051601;28;20337;-86
2023/09/06 03:14:47;;;;;;;3.10;2.00;;;;;;;;;;5033322;28;20309;-86
2023/09/06 03:17:18;;;;;;;4.05;1.60;;;;;;;;;;5030264;28;20288;-86
2023/09/06 03:19:45;;;;;;;1.80;1.70;;;;;;;;;;5053575;28;20214;-85
2023/09/06 03:22:12;;;;;;;2.70;2.17;;;;;;;;;;5052190;28;20992;-87
2023/09/06 03:24:43;;;;;;;2.45;1.95;;;;;;;;;;5030813;28;20301;-87
2023/09/06 03:27:16;;;;;;;2.50;1.98;;;;;;;;;;5037046;28;20725;-86
2023/09/06 03:29:43;;;;;;;4.03;2.10;;;;;;;;;;5040907;28;20233;-88
2023/09/06 03:32:09;;;;;;;2.63;1.90;;;;;;;;;;5036370;28;20627;-87
2023/09/06 03:34:37;;;;;;;2.15;2.03;;;;;;;;;;5053550;28;20545;-86
2023/09/06 03:37:05;;;;;;;2.08;1.88;;;;;;;;;;5034003;28;20305;-84
2023/09/06 03:39:37;;;;;;;1.88;1.77;;;;;;;;;;5026931;28;20599;-85
2023/09/06 03:42:08;;;;;;;2.72;2.22;;;;;;;;;;5064139;28;20808;-87
2023/09/06 03:44:35;;;;;;;2.35;2.03;;;;;;;;;;5052000;28;20221;-85
2023/09/06 03:47:04;;;;;;;2.03;1.88;;;;;;;;;;5064504;28;20226;-86
2023/09/06 03:49:32;;;;;;;2.83;2.00;;;;;;;;;;5032395;28;20239;-86
2023/09/06 03:51:58;;;;;;;2.22;2.00;;;;;;;;;;5045664;28;20678;-86
2023/09/06 03:54:26;;;;;;;1.70;1.60;;;;;;;;;;5034822;28;20218;-87
2023/09/06 03:56:53;;;;;;;1.60;1.50;;;;;;;;;;5033682;28;20351;-85
2023/09/06 03:59:19;;;;;;;1.75;1.65;;;;;;;;;;5035226;28;20276;-86
2023/09/06 04:05:32;;;;;;;2.00;1.80;;;;;;;;;;5081184;28;20226;-86
2023/09/06 04:08:03;;;;;;;2.17;1.85;;;;;;;;;;5052937;28;20282;-85
2023/09/06 04:10:36;;;;;;;2.70;1.45;;;;;;;;;;5047962;28;20225;-86
2023/09/06 04:13:04;;;;;;;1.95;1.63;;;;;;;;;;5042802;28;20210;-85
2023/09/06 04:15:30;;;;;;;3.55;1.55;;;;;;;;;;5040625;28;20598;-84
2023/09/06 04:18:02;;;;;;;1.38;1.38;;;;;;;;;;5045200;28;20711;-86
2023/09/06 04:20:35;;;;;;;1.42;1.33;;;;;;;;;;5038081;28;21140;-85
2023/09/06 04:23:05;;;;;;;2.13;1.70;;;;;;;;;;5038592;28;20226;-85
2023/09/06 04:25:41;;;;;;;1.83;1.73;;;;;;;;;;5059738;28;20214;-85
2023/09/06 04:28:08;;;;;;;1.65;1.45;;;;;;;;;;5039994;28;20234;-85
2023/09/06 04:30:38;;;;;;;1.83;1.65;;;;;;;;;;5053096;28;20615;-86
2023/09/06 04:33:05;;;;;;;1.73;1.30;;;;;;;;;;5052533;28;20240;-84
2023/09/06 04:35:42;;;;;;;1.60;1.50;;;;;;;;;;5063009;28;20297;-86
2023/09/06 04:38:14;;;;;;;1.58;1.48;;;;;;;;;;5062840;28;20359;-86
2023/09/06 04:40:45;;;;;;;1.52;1.42;;;;;;;;;;5058826;28;20210;-87
2023/09/06 04:43:16;;;;;;;1.92;1.50;;;;;;;;;;5046400;28;20237;-85
2023/09/06 04:45:43;;;;;;;1.70;1.60;;;;;;;;;;5052246;28;20219;-86
2023/09/06 04:48:10;;;;;;;2.42;1.63;;;;;;;;;;5042899;28;20232;-85
2023/09/06 04:50:39;;;;;;;1.77;1.67;;;;;;;;;;5024068;28;20236;-87
2023/09/06 04:53:05;;;;;;;2.08;1.80;;;;;;;;;;5049275;28;20291;-85
2023/09/06 04:55:37;;;;;;;1.60;1.50;;;;;;;;;;5057885;28;20227;-86
2023/09/06 04:58:06;;;;;;;1.63;1.52;;;;;;;;;;5051868;28;20225;-85
2023/09/06 05:00:35;;;;;;;1.95;1.60;;;;;;;;;;5045692;28;20222;-86
2023/09/06 05:03:05;;;;;;;2.03;1.85;;;;;;;;;;5058577;28;20230;-86
2023/09/06 05:05:31;;;;;;;2.37;2.17;;;;;;;;;;5032457;28;20227;-85
2023/09/06 05:07:59;;;;;;;1.75;1.65;;;;;;;;;;5039716;28;20219;-85
2023/09/06 05:10:24;;;;;;;2.20;2.00;;;;;;;;;;5036678;28;20225;-87
2023/09/06 05:12:50;;;;;;;1.88;1.77;;;;;;;;;;5037017;28;20210;-86
2023/09/06 05:15:18;;;;;;;1.88;1.77;;;;;;;;;;5021489;28;20218;-86
2023/09/06 05:17:47;;;;;;;2.28;2.10;;;;;;;;;;5047603;28;20247;-87
2023/09/06 05:20:27;;;;;;;2.55;1.98;;;;;;;;;;5036856;28;20242;-87
2023/09/06 05:22:55;;;;;;;2.10;1.90;;;;;;;;;;5074428;28;20231;-86
2023/09/06 05:25:21;;;;;;;2.40;2.20;;;;;;;;;;5032586;28;20215;-86
2023/09/06 05:27:51;;;;;;;2.60;2.15;;;;;;;;;;5049290;28;20731;-84
2023/09/06 05:30:17;;;;;;;2.80;2.13;;;;;;;;;;5025379;28;20496;-85
2023/09/06 05:32:43;;;;;;;4.38;2.33;;;;;;;;;;5044754;28;20223;-87
2023/09/06 05:35:11;;;;;;;2.15;1.98;;;;;;;;;;5032445;28;20268;-86
2023/09/06 05:37:39;;;;;;;1.90;1.80;;;;;;;;;;5039732;28;20227;-83
2023/09/06 05:40:08;;;;;;;2.08;1.98;;;;;;;;;;5035105;28;20272;-85
2023/09/06 05:42:37;;;;;;;1.88;1.77;;;;;;;;;;5062756;28;20229;-85
2023/09/06 05:45:04;;;;;;;1.92;1.83;;;;;;;;;;5033347;28;20211;-88
2023/09/06 05:47:33;;;;;;;2.50;2.30;;;;;;;;;;5012194;28;20379;-86
2023/09/06 05:50:04;;;;;;;2.28;2.10;;;;;;;;;;5037627;28;20673;-86
2023/09/06 05:52:35;;;;;;;2.67;1.85;;;;;;;;;;5029342;28;20221;-86
2023/09/06 05:55:02;;;;;;;1.90;1.80;;;;;;;;;;5062210;28;20223;-87
2023/09/06 05:57:27;;;;;;;2.22;1.95;;;;;;;;;;5053332;28;20597;-87
2023/09/06 05:59:53;;;;;;;2.10;1.90;;;;;;;;;;5053656;28;20221;-87
2023/09/06 06:02:22;;;;;;;1.85;1.75;;;;;;;;;;5029385;28;20949;-86
2023/09/06 06:04:52;;;;;;;1.98;1.80;;;;;;;;;;5052928;28;20772;-87
2023/09/06 06:07:17;;;;;;;4.10;2.25;;;;;;;;;;5025371;28;20230;-88
2023/09/06 06:09:44;;;;;;;2.40;2.20;;;;;;;;;;5048045;28;20218;-88
2023/09/06 06:12:13;;;;;;;3.25;2.10;;;;;;;;;;5062007;28;20203;-88
2023/09/06 06:14:40;;;;;;;1.98;1.42;;;;;;;;;;5033215;28;20214;-87
2023/09/06 06:17:09;;;;;;;2.10;2.00;;;;;;;;;;5049809;28;20215;-88
2023/09/06 06:19:37;;;;;;;2.35;2.15;;;;;;;;;;5030014;28;20261;-87
2023/09/06 06:22:03;;;;;;;3.47;1.90;;;;;;;;;;5017726;28;20835;-87
2023/09/06 06:24:35;;;;;;;2.25;2.05;;;;;;;;;;5054934;28;20214;-86
2023/09/06 06:27:04;;;;;;;1.90;1.80;;;;;;;;;;5054492;28;20219;-87
2023/09/06 06:29:31;;;;;;;2.20;2.00;;;;;;;;;;5051969;28;20222;-87
2023/09/06 06:31:57;;;;;;;2.28;2.10;;;;;;;;;;5029020;28;20624;-87
2023/09/06 06:34:25;;;;;;;2.33;2.13;;;;;;;;;;5020333;28;20275;-87
2023/09/06 06:36:53;;;;;;;3.88;2.28;;;;;;;;;;5041598;28;20245;-87
2023/09/06 06:39:18;;;;;;;3.08;1.80;;;;;;;;;;5054616;28;20206;-88
2023/09/06 06:41:46;;;;;;;2.85;2.40;;;;;;;;;;5043495;28;20206;-87
2023/09/06 06:44:14;;;;;;;2.42;2.22;;;;;;;;;;5064295;28;20216;-87
2023/09/06 06:46:40;;;;;;;3.90;2.33;;;;;;;;;;5062657;28;20218;-87
2023/09/06 06:49:10;;;;;;;2.20;2.00;;;;;;;;;;5061220;28;20214;-86
2023/09/06 06:51:39;;;;;;;2.35;2.08;;;;;;;;;;5058258;28;20210;-88
2023/09/06 06:54:09;;;;;;;2.55;2.35;;;;;;;;;;5038985;28;20217;-87
2023/09/06 06:56:37;;;;;;;2.25;2.00;;;;;;;;;;5039203;28;20224;-88
2023/09/06 06:59:03;;;;;;;3.40;2.10;;;;;;;;;;5062142;28;20214;-86
2023/09/06 07:01:31;;;;;;;4.18;2.05;;;;;;;;;;5035507;28;20225;-86
2023/09/06 07:04:00;;;;;;;2.75;2.22;;;;;;;;;;5040362;28;20214;-85
2023/09/06 07:06:30;;;;;;;2.78;2.55;;;;;;;;;;5042769;28;20590;-85
2023/09/06 07:08:59;;;;;;;4.65;2.50;;;;;;;;;;5058939;28;20207;-85
2023/09/06 07:11:26;;;;;;;4.00;2.28;;;;;;;;;;5069528;28;20210;-85
2023/09/06 07:13:52;;;;;;;2.88;2.10;;;;;;;;;;5056336;28;20218;-85
2023/09/06 07:16:21;;;;;;;2.40;2.20;;;;;;;;;;5058038;28;20259;-86
2023/09/06 07:18:50;;;;;;;3.85;2.50;;;;;;;;;;5068391;28;20214;-84
2023/09/06 07:21:16;;;;;;;3.58;2.13;;;;;;;;;;5069126;28;20683;-85
2023/09/06 07:23:44;;;;;;;3.97;2.40;;;;;;;;;;5065485;28;20237;-84
2023/09/06 07:26:14;;;;;;;2.70;2.40;;;;;;;;;;5050668;28;20212;-86
2023/09/06 07:28:41;;;;;;;3.40;2.70;;;;;;;;;;5066689;28;20229;-86
2023/09/06 07:31:07;;;;;;;2.33;2.13;;;;;;;;;;5059158;28;20730;-86
2023/09/06 07:33:38;;;;;;;3.35;2.13;;;;;;;;;;5065791;28;20222;-85
2023/09/06 07:36:04;;;;;;;2.15;1.92;;;;;;;;;;5066630;28;20823;-86
2023/09/06 07:38:30;;;;;;;2.97;2.03;;;;;;;;;;5058456;28;20218;-86
2023/09/06 07:41:04;;;;;;;4.55;2.53;;;;;;;;;;5065291;28;20218;-86
2023/09/06 07:43:37;;;;;;;2.03;1.92;;;;;;;;;;5071509;28;20289;-87
2023/09/06 07:46:08;;;;;;;2.97;2.58;;;;;;;;;;5054108;28;20237;-85
2023/09/06 07:48:35;;;;;;;2.10;2.00;;;;;;;;;;5071468;28;20487;-85
2023/09/06 07:51:04;;;;;;;2.13;1.92;;;;;;;;;;5068933;28;20211;-86
2023/09/06 07:53:29;;;;;;;2.17;1.70;;;;;;;;;;5055474;28;20244;-85
2023/09/06 07:55:58;;;;;;;1.67;1.58;;;;;;;;;;5048158;28;20214;-86
2023/09/06 07:58:23;;;;;;;2.28;1.73;;;;;;;;;;5064201;28;20237;-86
2023/09/06 08:00:50;;;;;;;2.35;1.73;;;;;;;;;;5048279;28;20556;-86
2023/09/06 08:03:20;;;;;;;2.70;1.42;;;;;;;;;;5072148;28;20294;-87
2023/09/06 08:05:46;;;;;;;2.10;1.90;;;;;;;;;;5066285;28;20218;-86
2023/09/06 08:08:14;;;;;;;1.65;1.55;;;;;;;;;;5051391;28;20233;-87
2023/09/06 08:10:42;;;;;;;2.65;1.70;;;;;;;;;;5055485;28;20218;-85
2023/09/06 08:13:07;;;;;;;2.95;1.67;;;;;;;;;;5082896;28;20202;-85
2023/09/06 08:15:35;;;;;;;1.98;1.70;;;;;;;;;;5049732;28;20226;-86
2023/09/06 08:18:04;;;;;;;3.83;1.63;;;;;;;;;;5056863;28;20214;-86
2023/09/06 08:20:32;;;;;;;3.78;2.00;;;;;;;;;;5061910;28;20278;-85
2023/09/06 08:22:58;;;;;;;2.72;1.60;;;;;;;;;;5060723;28;20246;-85
2023/09/06 08:25:23;;;;;;;1.42;1.33;;;;;;;;;;5039159;28;20213;-88
2023/09/06 08:27:50;;;;;;;1.30;1.20;;;;;;;;;;5076003;28;20210;-86
2023/09/06 08:30:16;;;;;;;1.58;1.27;;;;;;;;;;5075406;28;20233;-86
2023/09/06 08:32:43;;;;;;;1.60;1.50;;;;;;;;;;5062589;28;20198;-86
2023/09/06 08:35:12;;;;;;;1.42;1.23;;;;;;;;;;5061243;28;20278;-89
2023/09/06 08:37:37;;;;;;;2.03;1.65;;;;;;;;;;5063683;28;20279;-88
2023/09/06 08:40:06;;;;;;;1.52;1.33;;;;;;;;;;5049720;28;20258;-88
2023/09/06 08:42:34;;;;;;;2.15;1.55;;;;;;;;;;5071682;28;20232;-88
2023/09/06 08:45:01;;;;;;;1.70;1.60;;;;;;;;;;5071799;28;20445;-88
2023/09/06 08:47:27;;;;;;;2.00;1.40;;;;;;;;;;5078390;28;20206;-86
2023/09/06 08:49:53;;;;;;;1.17;1.10;;;;;;;;;;5071183;28;20209;-90
2023/09/06 08:52:24;;;;;;;2.05;1.35;;;;;;;;;;5065380;28;20274;-88
2023/09/06 08:54:50;;;;;;;1.30;1.20;;;;;;;;;;5076925;28;20287;-90
2023/09/06 08:57:15;;;;;;;3.58;1.40;;;;;;;;;;5056919;28;20222;-88
2023/09/06 08:59:43;;;;;;;1.55;1.35;;;;;;;;;;5072965;28;20241;-89
2023/09/06 09:02:12;;;;;;;1.50;1.40;;;;;;;;;;5066042;28;20227;-87
2023/09/06 09:04:42;;;;;;;2.75;1.40;;;;;;;;;;5075237;28;20264;-87
2023/09/06 09:07:10;;;;;;;5.70;1.20;;;;;;;;;;5075317;28;20225;-88
2023/09/06 09:09:59;;;;;;;1.73;1.30;;;;;;;;;;5072945;28;20224;-88
2023/09/06 09:12:34;;;;;;;2.70;1.67;;;;;;;;;;5066941;28;20222;-87
2023/09/06 09:15:03;;;;;;;2.58;1.50;;;;;;;;;;5066559;28;20225;-87
2023/09/06 09:17:29;;;;;;;2.90;1.70;;;;;;;;;;5065566;28;20556;-87
2023/09/06 09:19:58;;;;;;;2.20;1.55;;;;;;;;;;5064700;28;20690;-88
2023/09/06 09:22:24;;;;;;;1.60;1.50;;;;;;;;;;5070706;28;20347;-87
2023/09/06 09:24:50;;;;;;;3.17;1.20;;;;;;;;;;5047045;28;20249;-87
2023/09/06 09:27:19;;;;;;;2.35;1.50;;;;;;;;;;5048217;28;21293;-87
2023/09/06 09:29:47;;;;;;;2.53;1.50;;;;;;;;;;5042602;28;20229;-88
2023/09/06 09:32:15;;;;;;;1.20;1.20;;;;;;;;;;5055499;28;20221;-88
2023/09/06 09:34:41;;;;;;;1.42;1.30;;;;;;;;;;5053692;28;20410;-87
2023/09/06 09:37:10;;;;;;;1.27;1.20;;;;;;;;;;5056737;28;20864;-88
2023/09/06 09:39:35;;;;;;;2.70;1.10;;;;;;;;;;5062226;28;20209;-86
2023/09/06 09:42:05;;;;;;;2.28;1.35;;;;;;;;;;5020199;28;20223;-88
2023/09/06 09:44:33;;;;;;;3.95;1.50;;;;;;;;;;5035709;28;20218;-87
2023/09/06 09:47:04;;;;;;;2.33;1.50;;;;;;;;;;5058294;28;20210;-87
2023/09/06 09:49:29;;;;;;;1.30;1.20;;;;;;;;;;5066964;28;20271;-87
2023/09/06 09:51:59;;;;;;;1.52;1.27;;;;;;;;;;5036015;28;20952;-86
2023/09/06 09:54:28;;;;;;;2.88;1.50;;;;;;;;;;5050275;28;20306;-86
2023/09/06 09:57:03;;;;;;;1.88;1.38;;;;;;;;;;5060395;28;20225;-87
2023/09/06 09:59:31;;;;;;;2.20;1.30;;;;;;;;;;5035832;28;20222;-86
2023/09/06 10:01:57;;;;;;;1.90;1.70;;;;;;;;;;5046985;28;20218;-87
2023/09/06 10:04:26;;;;;;;1.55;1.30;;;;;;;;;;5045111;28;20669;-88
2023/09/06 10:06:56;;;;;;;1.52;1.40;;;;;;;;;;5048512;28;20226;-86
2023/09/06 10:09:26;;;;;;;1.48;1.30;;;;;;;;;;5050909;28;21080;-87
2023/09/06 10:11:53;;;;;;;1.40;1.30;;;;;;;;;;5045724;28;20228;-88
2023/09/06 10:14:22;;;;;;;1.40;1.30;;;;;;;;;;5056279;28;20230;-87
2023/09/06 10:16:48;;;;;;;3.00;1.40;;;;;;;;;;5047810;28;20294;-87
2023/09/06 10:19:16;;;;;;;1.75;1.13;;;;;;;;;;5059161;28;20234;-87
2023/09/06 10:21:44;;;;;;;1.85;1.50;;;;;;;;;;5044155;28;20706;-87
2023/09/06 10:24:19;;;;;;;1.85;1.27;;;;;;;;;;5055450;28;20222;-87
2023/09/06 10:26:46;;;;;;;0.98;0.98;;;;;;;;;;5051601;28;20233;-87
2023/09/06 10:29:17;;;;;;;1.65;1.27;;;;;;;;;;5058427;28;20214;-87
2023/09/06 10:31:46;;;;;;;4.20;1.50;;;;;;;;;;5038662;28;20320;-88
2023/09/06 10:34:14;;;;;;;1.63;1.40;;;;;;;;;;5067704;28;20264;-87
2023/09/06 10:36:56;;;;;;;1.60;1.25;;;;;;;;;;5040875;28;20242;-89
2023/09/06 10:39:26;;;;;;;1.10;1.05;;;;;;;;;;5070022;28;20224;-88
2023/09/06 10:42:11;;;;;;;1.75;1.13;;;;;;;;;;5040223;28;20214;-88
2023/09/06 10:44:59;;;;;;;3.40;1.48;;;;;;;;;;5051091;28;20707;-88
2023/09/06 10:47:29;;;;;;;2.45;1.30;;;;;;;;;;5060161;28;20215;-88
2023/09/06 10:50:18;;;;;;;1.60;1.20;;;;;;;;;;5053047;28;20222;-88
2023/09/06 10:52:53;;;;;;;2.13;1.40;;;;;;;;;;5044119;28;20218;-89
2023/09/06 10:55:26;;;;;;;1.40;1.27;;;;;;;;;;5031250;28;20225;-88
2023/09/06 10:58:03;;;;;;;1.25;1.15;;;;;;;;;;5051894;28;20229;-87
2023/09/06 11:00:30;;;;;;;1.45;1.30;;;;;;;;;;5056039;28;20221;-87
2023/09/06 11:03:17;;;;;;;1.30;1.20;;;;;;;;;;5044007;28;20236;-89
2023/09/06 11:05:54;;;;;;;1.98;1.20;;;;;;;;;;5030131;28;20229;-89
2023/09/06 11:08:24;;;;;;;1.33;1.10;;;;;;;;;;5049482;28;20301;-88
2023/09/06 11:10:53;;;;;;;1.35;1.17;;;;;;;;;;5048122;28;20231;-88
2023/09/06 11:13:22;;;;;;;2.28;1.20;;;;;;;;;;5071645;28;20246;-88
2023/09/06 11:15:50;;;;;;;2.63;1.30;;;;;;;;;;5069558;28;20279;-90
2023/09/06 11:18:16;;;;;;;1.02;1.00;;;;;;;;;;5070404;28;20210;-88
2023/09/06 11:20:49;;;;;;;1.33;1.23;;;;;;;;;;5064155;28;20224;-89
2023/09/06 11:23:18;;;;;;;2.63;1.20;;;;;;;;;;5065121;28;20226;-84
2023/09/06 11:25:44;;;;;;;1.35;1.17;;;;;;;;;;5034560;28;20665;-88
2023/09/06 11:28:17;;;;;;;1.35;1.10;;;;;;;;;;5017982;28;20214;-86
2023/09/06 11:30:49;;;;;;;1.02;0.93;;;;;;;;;;5045632;28;20215;-86
2023/09/06 11:33:16;;;;;;;1.27;1.17;;;;;;;;;;5030146;28;20214;-88
2023/09/06 11:35:51;;;;;;;2.22;1.23;;;;;;;;;;5018283;28;20213;-88
2023/09/06 11:38:20;;;;;;;2.10;1.17;;;;;;;;;;5049195;28;20221;-86
2023/09/06 11:40:45;;;;;;;6.63;1.17;;;;;;;;;;5051726;28;20214;-85
2023/09/06 11:43:17;;;;;;;1.63;0.98;;;;;;;;;;5051637;28;20219;-87
2023/09/06 11:45:45;;;;;;;1.30;1.17;;;;;;;;;;5029330;28;20230;-88
2023/09/06 11:48:19;;;;;;;2.03;1.13;;;;;;;;;;5027728;28;20206;-87
2023/09/06 11:50:47;;;;;;;1.35;1.23;;;;;;;;;;5040072;28;20227;-88
2023/09/06 11:53:15;;;;;;;3.53;1.17;;;;;;;;;;5041596;28;20892;-87
2023/09/06 11:55:45;;;;;;;1.30;1.20;;;;;;;;;;5037131;28;20243;-86
2023/09/06 11:58:16;;;;;;;2.25;1.25;;;;;;;;;;5053817;28;20219;-86
2023/09/06 12:00:50;;;;;;;1.35;1.08;;;;;;;;;;5054149;28;20234;-87
2023/09/06 12:03:16;;;;;;;1.58;1.35;;;;;;;;;;5039752;28;20290;-86
2023/09/06 12:05:46;;;;;;;1.75;1.38;;;;;;;;;;5045128;28;20238;-85
2023/09/06 12:08:19;;;;;;;1.38;1.17;;;;;;;;;;5045158;28;20986;-84
2023/09/06 12:10:50;;;;;;;2.40;1.30;;;;;;;;;;5047756;28;20240;-84
2023/09/06 12:13:25;;;;;;;2.15;1.02;;;;;;;;;;5059547;28;20211;-86
2023/09/06 12:15:51;;;;;;;1.20;1.10;;;;;;;;;;5037633;28;20229;-86
2023/09/06 12:18:17;;;;;;;1.02;0.95;;;;;;;;;;5073986;28;20222;-85
2023/09/06 12:20:43;;;;;;;1.83;1.20;;;;;;;;;;5059962;28;20225;-85
2023/09/06 12:23:09;;;;;;;2.65;1.20;;;;;;;;;;5048331;28;20608;-84
2023/09/06 12:25:34;;;;;;;2.22;1.17;;;;;;;;;;5050202;28;20218;-85
2023/09/06 12:28:05;;;;;;;2.45;1.35;;;;;;;;;;5047330;28;20304;-84
2023/09/06 12:30:38;;;;;;;1.10;1.00;;;;;;;;;;5036659;28;20695;-87
2023/09/06 12:33:03;;;;;;;1.20;1.00;;;;;;;;;;5033547;28;20426;-87
2023/09/06 12:35:35;;;;;;;1.10;0.98;;;;;;;;;;5029183;28;20210;-86
2023/09/06 12:38:01;;;;;;;1.02;1.02;;;;;;;;;;5038392;28;20221;-86
2023/09/06 12:40:28;;;;;;;2.10;1.10;;;;;;;;;;5050554;28;20207;-85
2023/09/06 12:42:57;;;;;;;2.28;1.10;;;;;;;;;;5061854;28;20250;-85
2023/09/06 12:45:31;;;;;;;1.20;1.10;;;;;;;;;;5035723;28;20290;-86
2023/09/06 12:48:00;;;;;;;4.60;1.08;;;;;;;;;;5041145;28;20278;-87
2023/09/06 12:50:25;;;;;;;1.70;1.30;;;;;;;;;;5046316;28;20219;-87
2023/09/06 12:52:52;;;;;;;3.47;1.10;;;;;;;;;;5040600;28;20247;-86
2023/09/06 12:55:18;;;;;;;1.90;1.17;;;;;;;;;;5059127;28;20256;-86
2023/09/06 12:57:44;;;;;;;1.38;1.27;;;;;;;;;;5045438;28;20230;-85
2023/09/06 13:00:12;;;;;;;1.17;1.10;;;;;;;;;;5039103;28;20298;-86
2023/09/06 13:02:38;;;;;;;1.17;1.08;;;;;;;;;;5023964;28;20662;-87
2023/09/06 13:05:08;;;;;;;1.85;1.20;;;;;;;;;;5048755;28;20282;-85
2023/09/06 13:07:33;;;;;;;2.03;1.15;;;;;;;;;;5054299;28;20230;-86
2023/09/06 13:09:59;;;;;;;0.95;0.93;;;;;;;;;;5042091;28;20213;-87
2023/09/06 13:12:24;;;;;;;1.10;0.95;;;;;;;;;;5049765;28;20221;-86
2023/09/06 13:14:50;;;;;;;1.60;1.10;;;;;;;;;;5040349;28;20210;-84
2023/09/06 13:17:18;;;;;;;1.05;0.95;;;;;;;;;;5056083;28;20261;-86
2023/09/06 13:19:44;;;;;;;3.45;1.60;;;;;;;;;;5042364;28;20270;-85
2023/09/06 13:22:09;;;;;;;1.20;1.08;;;;;;;;;;5051894;28;20631;-86
2023/09/06 13:24:39;;;;;;;1.92;1.20;;;;;;;;;;5041992;28;20218;-85
2023/09/06 13:27:05;;;;;;;0.90;0.90;;;;;;;;;;5041359;28;21083;-86
2023/09/06 13:29:31;;;;;;;1.45;0.90;;;;;;;;;;5039634;28;20566;-87
2023/09/06 13:31:59;;;;;;;1.33;1.15;;;;;;;;;;5023589;28;20210;-86
2023/09/06 13:34:25;;;;;;;1.13;0.90;;;;;;;;;;5040705;28;20214;-85
2023/09/06 13:36:50;;;;;;;1.13;0.98;;;;;;;;;;5061152;28;20330;-85
2023/09/06 13:39:17;;;;;;;1.50;1.00;;;;;;;;;;5044034;28;21610;-86
2023/09/06 13:41:42;;;;;;;1.30;1.20;;;;;;;;;;5034823;28;20226;-85
2023/09/06 13:44:08;;;;;;;2.60;1.20;;;;;;;;;;5057490;28;20223;-83
2023/09/06 13:46:33;;;;;;;1.27;0.90;;;;;;;;;;5056191;28;20223;-87
2023/09/06 13:49:00;;;;;;;1.33;1.00;;;;;;;;;;5035050;28;20219;-85
2023/09/06 13:51:29;;;;;;;0.90;0.90;;;;;;;;;;5069238;28;20207;-85
2023/09/06 13:53:57;;;;;;;1.52;0.90;;;;;;;;;;5058373;28;20214;-86
2023/09/06 13:56:22;;;;;;;1.10;1.00;;;;;;;;;;5045822;28;20223;-85
2023/09/06 13:58:49;;;;;;;1.10;1.00;;;;;;;;;;5064933;28;20218;-84
2023/09/06 14:01:15;;;;;;;0.82;0.80;;;;;;;;;;5052189;28;20306;-85
2023/09/06 14:03:41;;;;;;;1.05;1.02;;;;;;;;;;5023901;28;20593;-84
2023/09/06 14:06:07;;;;;;;1.20;1.10;;;;;;;;;;5029142;28;20230;-86
2023/09/06 14:08:35;;;;;;;2.05;0.93;;;;;;;;;;5049779;28;20218;-87
2023/09/06 14:11:01;;;;;;;0.80;0.80;;;;;;;;;;5037055;28;20226;-85
2023/09/06 14:13:29;;;;;;;4.10;1.38;;;;;;;;;;5038447;28;20199;-85
2023/09/06 14:15:54;;;;;;;1.73;1.25;;;;;;;;;;5038671;28;20945;-85
2023/09/06 14:18:20;;;;;;;1.27;1.17;;;;;;;;;;5054567;28;20309;-85
2023/09/06 14:20:46;;;;;;;1.10;1.00;;;;;;;;;;5052126;28;20222;-86
2023/09/06 14:23:12;;;;;;;1.25;1.15;;;;;;;;;;5050248;28;20242;-83
2023/09/06 14:25:43;;;;;;;5.30;2.17;;;;;;;;;;5031073;28;20210;-86
2023/09/06 14:28:08;;;;;;;1.92;1.30;;;;;;;;;;5052588;28;20279;-83
2023/09/06 14:30:41;;;;;;;1.23;1.13;;;;;;;;;;5051500;28;20210;-84
2023/09/06 14:33:12;;;;;;;1.13;1.02;;;;;;;;;;5037383;28;20221;-86
2023/09/06 14:35:45;;;;;;;1.80;1.60;;;;;;;;;;5040893;28;20222;-85
2023/09/06 14:38:14;;;;;;;2.95;1.40;;;;;;;;;;5046376;28;20246;-85
2023/09/06 14:40:46;;;;;;;3.42;1.70;;;;;;;;;;5029559;28;20214;-85
2023/09/06 14:43:11;;;;;;;1.80;1.70;;;;;;;;;;5065226;28;20221;-84
2023/09/06 14:45:37;;;;;;;3.05;1.70;;;;;;;;;;5047119;28;20206;-85
2023/09/06 14:48:06;;;;;;;2.28;1.70;;;;;;;;;;5030002;28;20226;-85
2023/09/06 14:50:34;;;;;;;2.78;1.50;;;;;;;;;;5022196;28;20221;-83
2023/09/06 14:52:59;;;;;;;1.48;1.38;;;;;;;;;;5052842;28;20297;-85
2023/09/06 14:55:28;;;;;;;1.60;1.50;;;;;;;;;;5066896;28;20271;-84